Tridens — PBVO — position and weather

sailwx.info

Track history (hours):
 
Tides and Currents Weather Stations Pressure Air Temp Water Temp Dewpoint Dewpoint Depression Visibility Wind Speed Wind Dir Waves Ship Positions

Oceanographic research ship Tridens (Netherlands)

Detailed information on ship capabilities available from University of Delaware's Ocean Information Center.

Last reported at 2020-Sep-29 04:28 UTC. Time now 2020-Sep-29 04:52 UTC.
Position N 52°06' E 004°16'.

Length 74 m; beam 14 m.

Type: Other ship. MMSI: 244033000.

Date/timePositionNaut miles runAvg speedWind from/ knotsBaromVisibWave heightAir tempDewpointWater temp
2020-Sep-29 04:28N 52°06' E 004°16'0 0.0
2020-Sep-29 00:25N 52°06' E 004°16'0 0.0
2020-Sep-28 21:58N 52°06' E 004°16'0 0.0
2020-Sep-28 19:58N 52°06' E 004°16'0 0.0
2020-Sep-28 19:28N 52°06' E 004°16'0 0.0
2020-Sep-28 18:28N 52°06' E 004°16'0 0.0
2020-Sep-28 17:28N 52°06' E 004°16'0 0.0
2020-Sep-28 16:58N 52°06' E 004°16'0 0.0
2020-Sep-28 15:58N 52°06' E 004°16'0 0.0
2020-Sep-28 13:55N 52°06' E 004°16'0 0.0
2020-Sep-28 11:58N 52°06' E 004°16'0 0.0
2020-Sep-28 11:28N 52°06' E 004°16'0 0.0
2020-Sep-28 10:58N 52°06' E 004°16'0 0.0
2020-Sep-28 10:28N 52°06' E 004°16'0 0.0
2020-Sep-28 08:28N 52°06' E 004°16'0 0.0
2020-Sep-28 07:28N 52°06' E 004°16'0 0.0
2020-Sep-28 02:58N 52°06' E 004°16'0 0.0
2020-Sep-28 01:30N 52°06' E 004°16'0 0.0
2020-Sep-28 01:00N 52°06' E 004°16'0 0.0
2020-Sep-27 22:00N 52°06' E 004°16'0 0.0
2020-Sep-27 20:00N 52°06' E 004°16'0 0.0
2020-Sep-27 19:00N 52°06' E 004°16'0 0.0
2020-Sep-27 17:00N 52°06' E 004°16'0 0.0
2020-Sep-27 14:00N 52°06' E 004°16'0 0.0
2020-Sep-27 13:00N 52°06' E 004°16'0 0.0
2020-Sep-27 10:00N 52°06' E 004°16'0 0.0
2020-Sep-27 07:30N 52°06' E 004°16'0 0.0
2020-Sep-27 03:00N 52°06' E 004°16'0 0.0
2020-Sep-26 23:00N 52°06' E 004°16'0 0.0
2020-Sep-26 22:00N 52°06' E 004°16'0 0.0
2020-Sep-26 19:00N 52°06' E 004°16'0 0.0
2020-Sep-26 15:00N 52°06' E 004°16'0 0.0
2020-Sep-26 11:00N 52°06' E 004°16'0 0.0
2020-Sep-26 09:30N 52°06' E 004°16'0 0.0
2020-Sep-26 08:00N 52°06' E 004°16'0 0.0
2020-Sep-26 07:30N 52°06' E 004°16'0 0.0
2020-Sep-26 07:00N 52°06' E 004°16'0 0.0
2020-Sep-26 06:30N 52°06' E 004°16'0 0.0
2020-Sep-26 05:30N 52°06' E 004°16'0 0.0
2020-Sep-26 00:30N 52°06' E 004°16'0 0.0
2020-Sep-25 23:30N 52°06' E 004°16'0 0.0
2020-Sep-25 20:30N 52°06' E 004°16'0 0.0
2020-Sep-25 19:30N 52°06' E 004°16'0 0.0
2020-Sep-25 14:30N 52°06' E 004°16'0 0.0
2020-Sep-25 14:00N 52°06' E 004°16'0 0.0
2020-Sep-25 13:30N 52°06' E 004°16'0 0.0
2020-Sep-25 08:30N 52°06' E 004°16'0 0.0
2020-Sep-25 07:30N 52°06' E 004°16'0 0.0
2020-Sep-25 07:00N 52°06' E 004°16'0 0.0
2020-Sep-25 06:00N 52°06' E 004°16'0 0.0
2020-Sep-25 04:00N 52°06' E 004°16'0 0.0
2020-Sep-25 00:30N 52°06' E 004°16'0 0.0
2020-Sep-24 17:00N 52°06' E 004°16'4 4.2
2020-Sep-24 16:00N 52°10' E 004°16'510.5
2020-Sep-24 15:30N 52°15' E 004°20'1510.1
2020-Sep-24 14:00N 52°28' E 004°33'  
2020-Sep-21 15:55N 55°23' W 000°10'2110.4
2020-Sep-21 13:51N 55°44' W 000°10'34 2.8
2020-Sep-21 01:30N 55°51' W 001°10'1111.4
2020-Sep-21 00:31N 55°40' W 001°10'1110.6
2020-Sep-20 23:30N 55°29' W 001°10'31 7.3
2020-Sep-20 19:14N 55°08' W 000°29'1 4.3
2020-Sep-20 18:59N 55°07' W 000°30'25 3.0
2020-Sep-20 10:29N 54°58' W 001°11'14 7.3
2020-Sep-20 08:30N 55°11' W 001°22'1711.0
2020-Sep-20 06:57N 55°28' W 001°26'10 9.9
2020-Sep-20 05:56N 55°38' W 001°27'50 8.2
2020-Sep-19 23:52N 56°14' W 002°28'16 4.8
2020-Sep-19 20:31N 56°27' W 002°10'14 9.0
2020-Sep-19 19:01N 56°15' W 001°57'4 2.7
2020-Sep-19 17:30N 56°17' W 001°50'5 5.1
2020-Sep-19 16:30N 56°22' W 001°50'24 9.4
2020-Sep-19 13:57N 56°45' W 002°03'25 7.4
2020-Sep-19 10:37N 57°08' W 001°47'812.3
2020-Sep-19 09:59N 57°15' W 001°50'21 8.4
2020-Sep-19 07:30N 57°35' W 001°40'510.1
2020-Sep-19 07:00N 57°40' W 001°45'16 7.9
2020-Sep-19 05:00N 57°56' W 001°44'612.1
2020-Sep-19 04:30N 57°55' W 001°33'  
Track history (hours):
 
Tides and Currents Weather Stations Pressure Air Temp Water Temp Dewpoint Dewpoint Depression Visibility Wind Speed Wind Dir Waves Ship Positions

Oceanographic research ship Tridens (Netherlands)

Detailed information on ship capabilities available from University of Delaware's Ocean Information Center.

Last reported at 2020-Sep-29 04:28 UTC. Time now 2020-Sep-29 04:52 UTC.
Position N 52°06' E 004°16'.

Length 74 m; beam 14 m.

Type: Other ship. MMSI: 244033000.

Date/timePositionNaut miles runAvg speedWind from/ knotsBaromVisibWave heightAir tempDewpointWater temp
2020-Sep-29 04:28N 52°06' E 004°16'0 0.0
2020-Sep-29 00:25N 52°06' E 004°16'0 0.0
2020-Sep-28 21:58N 52°06' E 004°16'0 0.0
2020-Sep-28 19:58N 52°06' E 004°16'0 0.0
2020-Sep-28 19:28N 52°06' E 004°16'0 0.0
2020-Sep-28 18:28N 52°06' E 004°16'0 0.0
2020-Sep-28 17:28N 52°06' E 004°16'0 0.0
2020-Sep-28 16:58N 52°06' E 004°16'0 0.0
2020-Sep-28 15:58N 52°06' E 004°16'0 0.0
2020-Sep-28 13:55N 52°06' E 004°16'0 0.0
2020-Sep-28 11:58N 52°06' E 004°16'0 0.0
2020-Sep-28 11:28N 52°06' E 004°16'0 0.0
2020-Sep-28 10:58N 52°06' E 004°16'0 0.0
2020-Sep-28 10:28N 52°06' E 004°16'0 0.0
2020-Sep-28 08:28N 52°06' E 004°16'0 0.0
2020-Sep-28 07:28N 52°06' E 004°16'0 0.0
2020-Sep-28 02:58N 52°06' E 004°16'0 0.0
2020-Sep-28 01:30N 52°06' E 004°16'0 0.0
2020-Sep-28 01:00N 52°06' E 004°16'0 0.0
2020-Sep-27 22:00N 52°06' E 004°16'0 0.0
2020-Sep-27 20:00N 52°06' E 004°16'0 0.0
2020-Sep-27 19:00N 52°06' E 004°16'0 0.0
2020-Sep-27 17:00N 52°06' E 004°16'0 0.0
2020-Sep-27 14:00N 52°06' E 004°16'0 0.0
2020-Sep-27 13:00N 52°06' E 004°16'0 0.0
2020-Sep-27 10:00N 52°06' E 004°16'0 0.0
2020-Sep-27 07:30N 52°06' E 004°16'0 0.0
2020-Sep-27 03:00N 52°06' E 004°16'0 0.0
2020-Sep-26 23:00N 52°06' E 004°16'0 0.0
2020-Sep-26 22:00N 52°06' E 004°16'0 0.0
2020-Sep-26 19:00N 52°06' E 004°16'0 0.0
2020-Sep-26 15:00N 52°06' E 004°16'0 0.0
2020-Sep-26 11:00N 52°06' E 004°16'0 0.0
2020-Sep-26 09:30N 52°06' E 004°16'0 0.0
2020-Sep-26 08:00N 52°06' E 004°16'0 0.0
2020-Sep-26 07:30N 52°06' E 004°16'0 0.0
2020-Sep-26 07:00N 52°06' E 004°16'0 0.0
2020-Sep-26 06:30N 52°06' E 004°16'0 0.0
2020-Sep-26 05:30N 52°06' E 004°16'0 0.0
2020-Sep-26 00:30N 52°06' E 004°16'0 0.0
2020-Sep-25 23:30N 52°06' E 004°16'0 0.0
2020-Sep-25 20:30N 52°06' E 004°16'0 0.0
2020-Sep-25 19:30N 52°06' E 004°16'0 0.0
2020-Sep-25 14:30N 52°06' E 004°16'0 0.0
2020-Sep-25 14:00N 52°06' E 004°16'0 0.0
2020-Sep-25 13:30N 52°06' E 004°16'0 0.0
2020-Sep-25 08:30N 52°06' E 004°16'0 0.0
2020-Sep-25 07:30N 52°06' E 004°16'0 0.0
2020-Sep-25 07:00N 52°06' E 004°16'0 0.0
2020-Sep-25 06:00N 52°06' E 004°16'0 0.0
2020-Sep-25 04:00N 52°06' E 004°16'0 0.0
2020-Sep-25 00:30N 52°06' E 004°16'0 0.0
2020-Sep-24 17:00N 52°06' E 004°16'4 4.2
2020-Sep-24 16:00N 52°10' E 004°16'510.5
2020-Sep-24 15:30N 52°15' E 004°20'1510.1
2020-Sep-24 14:00N 52°28' E 004°33'  
2020-Sep-21 15:55N 55°23' W 000°10'2110.4
2020-Sep-21 13:51N 55°44' W 000°10'34 2.8
2020-Sep-21 01:30N 55°51' W 001°10'1111.4
2020-Sep-21 00:31N 55°40' W 001°10'1110.6
2020-Sep-20 23:30N 55°29' W 001°10'31 7.3
2020-Sep-20 19:14N 55°08' W 000°29'1 4.3
2020-Sep-20 18:59N 55°07' W 000°30'25 3.0
2020-Sep-20 10:29N 54°58' W 001°11'14 7.3
2020-Sep-20 08:30N 55°11' W 001°22'1711.0
2020-Sep-20 06:57N 55°28' W 001°26'10 9.9
2020-Sep-20 05:56N 55°38' W 001°27'50 8.2
2020-Sep-19 23:52N 56°14' W 002°28'16 4.8
2020-Sep-19 20:31N 56°27' W 002°10'14 9.0
2020-Sep-19 19:01N 56°15' W 001°57'4 2.7
2020-Sep-19 17:30N 56°17' W 001°50'5 5.1
2020-Sep-19 16:30N 56°22' W 001°50'24 9.4
2020-Sep-19 13:57N 56°45' W 002°03'25 7.4
2020-Sep-19 10:37N 57°08' W 001°47'812.3
2020-Sep-19 09:59N 57°15' W 001°50'21 8.4
2020-Sep-19 07:30N 57°35' W 001°40'510.1
2020-Sep-19 07:00N 57°40' W 001°45'16 7.9
2020-Sep-19 05:00N 57°56' W 001°44'612.1
2020-Sep-19 04:30N 57°55' W 001°33'  

Dump ship's entire track history